createdAt,value
2018-08-04T00:02:19.536Z,40.96
2018-08-04T00:04:47.700Z,40.29
2018-08-04T00:07:15.318Z,40.39
2018-08-04T00:09:43.647Z,40.49
2018-08-04T00:12:14.617Z,41.23
2018-08-04T00:14:44.243Z,41.24
2018-08-04T00:17:11.842Z,40.34
2018-08-04T00:19:40.747Z,41.19
2018-08-04T00:22:08.307Z,41.32
2018-08-04T00:24:35.859Z,40.55
2018-08-04T00:27:03.471Z,40.79
2018-08-04T00:29:33.214Z,41.09
2018-08-04T00:32:01.370Z,40.96
2018-08-04T00:34:30.125Z,41.31
2018-08-04T00:36:58.049Z,41.63
2018-08-04T00:39:26.102Z,40.95
2018-08-04T00:41:53.743Z,40.86
2018-08-04T00:44:22.956Z,41.80
2018-08-04T00:46:50.876Z,41.32
2018-08-04T00:49:18.500Z,41.40
2018-08-04T00:51:46.919Z,41.16
2018-08-04T00:54:14.477Z,41.70
2018-08-04T00:56:42.304Z,41.64
2018-08-04T00:59:09.850Z,41.82
2018-08-04T01:01:38.276Z,42.05
2018-08-04T01:04:05.812Z,41.86
2018-08-04T01:06:33.390Z,41.31
2018-08-04T01:09:01.019Z,41.36
2018-08-04T01:11:28.850Z,42.13
2018-08-04T01:13:56.405Z,41.94
2018-08-04T01:16:23.958Z,42.29
2018-08-04T01:18:51.599Z,42.33
2018-08-04T01:21:19.588Z,41.87
2018-08-04T01:23:47.131Z,42.38
2018-08-04T01:26:14.796Z,42.22
2018-08-04T01:28:42.419Z,42.70
2018-08-04T01:31:10.418Z,41.81
2018-08-04T01:33:37.984Z,42.16
2018-08-04T01:36:05.619Z,42.64
2018-08-04T01:38:33.486Z,42.10
2018-08-04T01:41:01.075Z,42.90
2018-08-04T01:43:28.660Z,43.19
2018-08-04T01:45:56.293Z,42.65
2018-08-04T01:48:24.169Z,43.11
2018-08-04T01:50:51.739Z,42.69
2018-08-04T01:53:19.354Z,42.75
2018-08-04T01:55:50.437Z,43.06
2018-08-04T01:58:18.241Z,42.92
2018-08-04T02:00:45.786Z,42.83
2018-08-04T02:03:13.342Z,43.79
2018-08-04T02:05:42.050Z,43.02
2018-08-04T02:08:09.590Z,43.20
2018-08-04T02:10:37.231Z,44.09
2018-08-04T02:13:05.483Z,43.53
2018-08-04T02:15:33.047Z,44.04
2018-08-04T02:18:00.600Z,44.16
2018-08-04T02:20:28.239Z,43.91
2018-08-04T02:22:56.046Z,44.67
2018-08-04T02:25:23.664Z,44.24
2018-08-04T02:27:51.287Z,44.20
2018-08-04T02:30:18.864Z,44.33
2018-08-04T02:32:46.778Z,44.25
2018-08-04T02:35:14.391Z,45.12
2018-08-04T02:37:42.017Z,44.65
2018-08-04T02:40:09.630Z,44.54
2018-08-04T02:42:37.468Z,44.77
2018-08-04T02:45:05.039Z,44.59
2018-08-04T02:47:32.624Z,45.38
2018-08-04T02:50:00.246Z,45.26
2018-08-04T02:52:28.993Z,45.14
2018-08-04T02:54:56.526Z,45.31
2018-08-04T02:57:24.330Z,45.31
2018-08-04T02:59:52.207Z,44.92
2018-08-04T03:02:19.805Z,44.83
2018-08-04T03:04:47.427Z,45.54
2018-08-04T03:07:15.072Z,45.12
2018-08-04T03:09:43.060Z,45.13
2018-08-04T03:12:10.574Z,45.16
2018-08-04T03:14:38.215Z,45.97
2018-08-04T03:17:08.779Z,45.51
2018-08-04T03:19:36.570Z,46.15
2018-08-04T03:22:04.111Z,46.19
2018-08-04T03:24:31.705Z,45.74
2018-08-04T03:26:59.270Z,46.32
2018-08-04T03:29:27.977Z,45.76
2018-08-04T03:31:55.567Z,46.63
2018-08-04T03:34:23.167Z,46.19
2018-08-04T03:36:50.698Z,46.16
2018-08-04T03:39:19.155Z,45.96
2018-08-04T03:41:46.816Z,45.92
2018-08-04T03:44:14.446Z,45.85
2018-08-04T03:46:42.084Z,46.74
2018-08-04T03:49:10.024Z,45.89
2018-08-04T03:51:37.691Z,46.93
2018-08-04T03:54:05.226Z,46.99
2018-08-04T03:56:32.804Z,46.33
2018-08-04T03:59:00.692Z,47.11
2018-08-04T04:01:28.266Z,47.34
2018-08-04T04:03:55.808Z,47.29
2018-08-04T04:06:23.341Z,46.68
2018-08-04T04:08:51.222Z,46.72
2018-08-04T04:11:18.770Z,47.44
2018-08-04T04:13:46.437Z,46.52
2018-08-04T04:16:14.055Z,47.35
2018-08-04T04:18:41.947Z,46.66
2018-08-04T04:21:09.505Z,47.44
2018-08-04T04:23:37.067Z,46.59
2018-08-04T04:26:04.651Z,47.38
2018-08-04T04:28:32.676Z,46.42
2018-08-04T04:31:00.270Z,46.65
2018-08-04T04:33:27.894Z,46.99
2018-08-04T04:35:55.895Z,46.24
2018-08-04T04:38:23.500Z,46.12
2018-08-04T04:40:51.050Z,46.13
2018-08-04T04:43:18.688Z,45.77
2018-08-04T04:45:46.710Z,45.75
2018-08-04T04:48:14.356Z,46.24
2018-08-04T04:50:41.907Z,45.07
2018-08-04T04:53:09.484Z,45.78
2018-08-04T04:55:37.454Z,45.35
2018-08-04T04:58:05.086Z,45.19
2018-08-04T05:00:32.643Z,44.55
2018-08-04T05:03:01.743Z,44.35
2018-08-04T05:05:29.379Z,44.43
2018-08-04T05:07:57.005Z,44.65
2018-08-04T05:10:24.617Z,45.41
2018-08-04T05:12:52.451Z,45.44
2018-08-04T05:15:20.067Z,45.09
2018-08-04T05:17:47.602Z,45.56
2018-08-04T05:20:15.158Z,45.51
2018-08-04T05:22:43.067Z,45.38
2018-08-04T05:25:10.651Z,44.94
2018-08-04T05:27:38.283Z,44.71
2018-08-04T05:30:06.530Z,44.67
2018-08-04T05:32:34.450Z,45.19
2018-08-04T05:35:02.058Z,44.57
2018-08-04T05:37:29.655Z,44.75
2018-08-04T05:39:57.193Z,45.15
2018-08-04T05:42:26.028Z,44.83
2018-08-04T05:44:53.665Z,45.50
2018-08-04T05:47:21.274Z,44.95
2018-08-04T05:49:50.264Z,45.89
2018-08-04T05:52:17.906Z,45.15
2018-08-04T05:54:45.456Z,45.78
2018-08-04T05:57:13.036Z,45.39
2018-08-04T05:59:40.864Z,45.29
2018-08-04T06:02:08.485Z,45.86
2018-08-04T06:04:36.091Z,45.25
2018-08-04T06:07:03.919Z,45.05
2018-08-04T06:09:31.491Z,45.72
2018-08-04T06:11:59.123Z,45.38
2018-08-04T06:14:26.998Z,45.42
2018-08-04T06:16:54.632Z,45.15
2018-08-04T06:19:22.264Z,45.24
2018-08-04T06:21:50.099Z,44.13
2018-08-04T06:24:17.650Z,44.76
2018-08-04T06:26:45.211Z,44.09
2018-08-04T06:29:13.204Z,43.96
2018-08-04T06:31:40.763Z,44.48
2018-08-04T06:34:08.584Z,44.27
2018-08-04T06:36:36.530Z,44.56
2018-08-04T06:39:05.158Z,44.20
2018-08-04T06:41:32.786Z,44.29
2018-08-04T06:44:00.606Z,43.57
2018-08-04T06:46:28.224Z,43.47
2018-08-04T06:48:55.850Z,43.29
2018-08-04T06:51:23.769Z,43.18
2018-08-04T06:53:51.332Z,43.41
2018-08-04T06:56:18.951Z,43.70
2018-08-04T06:58:47.435Z,43.09
2018-08-04T07:01:15.063Z,43.58
2018-08-04T07:03:42.718Z,43.04
2018-08-04T07:06:10.271Z,42.83
2018-08-04T07:08:40.880Z,42.62
2018-08-04T07:11:09.463Z,43.22
2018-08-04T07:13:37.797Z,42.39
2018-08-04T07:16:05.326Z,42.88
2018-08-04T07:18:34.305Z,42.22
2018-08-04T07:21:02.007Z,42.58
2018-08-04T07:23:29.625Z,42.40
2018-08-04T07:25:57.539Z,42.26
2018-08-04T07:28:25.141Z,42.42
2018-08-04T07:30:52.737Z,42.17
2018-08-04T07:33:20.650Z,41.44
2018-08-04T07:35:49.189Z,41.35
2018-08-04T07:38:16.759Z,41.20
2018-08-04T07:40:44.769Z,41.18
2018-08-04T07:43:12.372Z,41.28
2018-08-04T07:45:39.942Z,41.12
2018-08-04T07:48:07.999Z,40.21
2018-08-04T07:50:35.602Z,40.74
2018-08-04T07:53:03.210Z,40.17
2018-08-04T07:55:31.087Z,40.61
2018-08-04T07:57:58.646Z,40.45
2018-08-04T08:00:27.336Z,39.80
2018-08-04T08:02:55.310Z,39.88
2018-08-04T08:05:23.056Z,40.80
2018-08-04T08:07:50.660Z,40.64
2018-08-04T08:10:19.618Z,39.96
2018-08-04T08:12:47.288Z,40.40
2018-08-04T08:15:15.700Z,39.91
2018-08-04T08:17:43.598Z,40.63
2018-08-04T08:20:11.233Z,40.53
2018-08-04T08:22:41.414Z,39.51
2018-08-04T08:25:09.751Z,39.94
2018-08-04T08:27:37.659Z,39.17
2018-08-04T08:30:05.649Z,39.19
2018-08-04T08:32:33.464Z,40.14
2018-08-04T08:35:01.008Z,39.36
2018-08-04T08:37:28.613Z,40.18
2018-08-04T08:39:56.551Z,39.97
2018-08-04T08:42:25.696Z,39.96
2018-08-04T08:44:53.329Z,39.79
2018-08-04T08:47:21.304Z,38.90
2018-08-04T08:49:49.825Z,38.79
2018-08-04T08:52:17.478Z,38.52
2018-08-04T08:54:45.631Z,38.93
2018-08-04T08:57:14.254Z,38.39
2018-08-04T08:59:41.880Z,38.89
2018-08-04T09:02:10.416Z,38.36
2018-08-04T09:04:37.962Z,38.02
2018-08-04T09:07:05.847Z,38.51
2018-08-04T09:09:33.670Z,37.69
2018-08-04T09:12:01.263Z,38.19
2018-08-04T09:14:28.843Z,38.08
2018-08-04T09:16:56.674Z,37.91
2018-08-04T09:19:24.531Z,37.96
2018-08-04T09:21:52.131Z,36.96
2018-08-04T09:24:19.955Z,37.85
2018-08-04T09:26:47.626Z,36.76
2018-08-04T09:29:15.191Z,36.76
2018-08-04T09:31:44.678Z,36.58
2018-08-04T09:34:12.287Z,36.29
2018-08-04T09:36:39.921Z,36.20
2018-08-04T09:39:07.824Z,36.79
2018-08-04T09:41:35.440Z,36.04
2018-08-04T09:44:03.911Z,36.04
2018-08-04T09:46:31.714Z,35.05
2018-08-04T09:48:59.367Z,35.34
2018-08-04T09:51:26.899Z,34.61
2018-08-04T09:53:54.831Z,33.78
2018-08-04T09:56:24.231Z,33.23
2018-08-04T09:58:51.875Z,32.83
2018-08-04T10:01:24.778Z,33.02
2018-08-04T10:03:53.219Z,32.58
2018-08-04T10:06:21.645Z,31.96
2018-08-04T10:08:49.439Z,31.79
2018-08-04T10:11:17.011Z,31.21
2018-08-04T10:13:45.507Z,30.73
2018-08-04T10:16:13.584Z,30.71
2018-08-04T10:18:41.211Z,30.80
2018-08-04T10:21:11.762Z,30.03
2018-08-04T10:23:39.590Z,29.61
2018-08-04T10:26:08.705Z,29.87
2018-08-04T10:28:36.459Z,29.27
2018-08-04T10:31:04.337Z,29.13
2018-08-04T10:33:31.876Z,28.45
2018-08-04T10:35:59.464Z,28.31
2018-08-04T10:38:27.334Z,28.37
2018-08-04T10:40:55.284Z,28.30
2018-08-04T10:43:24.668Z,28.26
2018-08-04T10:45:52.563Z,28.12
2018-08-04T10:48:22.267Z,27.40
2018-08-04T10:50:49.919Z,27.37
2018-08-04T10:53:17.806Z,27.37
2018-08-04T10:55:46.034Z,26.98
2018-08-04T10:58:14.655Z,27.24
2018-08-04T11:00:42.550Z,26.82
2018-08-04T11:03:11.490Z,26.12
2018-08-04T11:05:40.444Z,26.25
2018-08-04T11:08:08.350Z,25.37
2018-08-04T11:10:36.569Z,25.61
2018-08-04T11:13:04.395Z,25.58
2018-08-04T11:15:32.284Z,24.44
2018-08-04T11:18:01.083Z,24.38
2018-08-04T11:20:28.757Z,25.16
2018-08-04T11:22:56.650Z,24.37
2018-08-04T11:25:27.163Z,24.44
2018-08-04T11:27:54.787Z,24.37
2018-08-04T11:30:22.627Z,25.08
2018-08-04T11:32:52.506Z,23.96
2018-08-04T11:35:21.455Z,24.56
2018-08-04T11:37:50.405Z,24.51
2018-08-04T11:40:20.737Z,23.48
2018-08-04T11:42:48.612Z,24.04
2018-08-04T11:45:17.202Z,23.55
2018-08-04T11:47:44.749Z,23.85
2018-08-04T11:50:13.200Z,23.67
2018-08-04T11:52:42.698Z,23.23
2018-08-04T11:55:12.536Z,22.89
2018-08-04T11:57:43.226Z,23.00
2018-08-04T12:00:10.853Z,22.82
2018-08-04T12:02:40.399Z,22.86
2018-08-04T12:05:08.227Z,22.16
2018-08-04T12:07:35.829Z,22.76
2018-08-04T12:10:03.457Z,22.24
2018-08-04T12:12:31.337Z,22.43
2018-08-04T12:14:58.854Z,22.91
2018-08-04T12:17:26.533Z,23.03
2018-08-04T12:19:54.420Z,23.00
2018-08-04T12:22:23.110Z,22.47
2018-08-04T12:24:50.726Z,22.39
2018-08-04T12:27:18.669Z,22.72
2018-08-04T12:29:46.235Z,22.63
2018-08-04T12:32:13.843Z,22.98
2018-08-04T12:34:42.446Z,22.41
2018-08-04T12:37:10.068Z,22.71
2018-08-04T12:39:38.422Z,23.22
2018-08-04T12:42:07.240Z,22.79
2018-08-04T12:44:34.868Z,22.82
2018-08-04T12:47:02.678Z,22.35
2018-08-04T12:49:30.621Z,22.26
2018-08-04T12:51:58.209Z,22.24
2018-08-04T12:54:26.434Z,22.71
2018-08-04T12:56:54.293Z,21.95
2018-08-04T12:59:23.108Z,21.83
2018-08-04T13:01:52.174Z,21.54
2018-08-04T13:04:21.287Z,21.88
2018-08-04T13:06:48.818Z,22.01
2018-08-04T13:09:17.509Z,21.23
2018-08-04T13:11:45.416Z,21.36
2018-08-04T13:14:12.952Z,21.27
2018-08-04T13:16:40.556Z,21.16
2018-08-04T13:19:08.378Z,21.53
2018-08-04T13:21:36.011Z,21.06
2018-08-04T13:24:03.550Z,21.64
2018-08-04T13:26:33.615Z,21.75
2018-08-04T13:29:01.190Z,21.01
2018-08-04T13:31:28.739Z,20.93
2018-08-04T13:33:56.668Z,20.75
2018-08-04T13:36:25.599Z,20.50
2018-08-04T13:38:54.058Z,21.10
2018-08-04T13:41:21.909Z,20.54
2018-08-04T13:43:49.444Z,20.45
2018-08-04T13:46:17.867Z,20.77
2018-08-04T13:48:46.435Z,20.81
2018-08-04T13:51:15.565Z,19.79
2018-08-04T13:53:43.166Z,19.69
2018-08-04T13:56:12.667Z,19.97
2018-08-04T13:58:41.240Z,20.56
2018-08-04T14:01:23.207Z,20.24
2018-08-04T14:03:51.108Z,20.63
2018-08-04T14:06:19.446Z,20.07
2018-08-04T14:08:47.051Z,20.52
2018-08-04T14:11:14.930Z,20.45
2018-08-04T14:13:43.131Z,20.07
2018-08-04T14:16:10.646Z,20.66
2018-08-04T14:18:38.589Z,20.37
2018-08-04T14:21:06.962Z,20.80
2018-08-04T14:23:34.482Z,19.94
2018-08-04T14:26:05.737Z,19.65
2018-08-04T14:28:34.568Z,19.85
2018-08-04T14:31:03.510Z,20.06
2018-08-04T14:33:31.395Z,19.28
2018-08-04T14:38:41.680Z,19.20
2018-08-04T14:41:10.535Z,19.62
2018-08-04T14:43:38.483Z,19.00
2018-08-04T14:46:06.076Z,20.04
2018-08-04T14:48:33.890Z,19.52
2018-08-04T14:51:01.507Z,19.22
2018-08-04T14:53:30.232Z,19.72
2018-08-04T14:56:00.088Z,19.46
2018-08-04T14:58:27.610Z,20.49
2018-08-04T15:00:56.929Z,20.28
2018-08-04T15:03:27.782Z,19.65
2018-08-04T15:05:55.398Z,19.90
2018-08-04T15:08:25.271Z,20.18
2018-08-04T15:10:54.719Z,20.06
2018-08-04T15:13:23.227Z,20.01
2018-08-04T15:15:52.280Z,19.56
2018-08-04T15:18:20.159Z,19.68
2018-08-04T15:20:47.772Z,19.37
2018-08-04T15:23:16.046Z,19.80
2018-08-04T15:25:43.955Z,19.85
2018-08-04T15:28:11.546Z,19.83
2018-08-04T15:30:39.295Z,21.15
2018-08-04T15:33:07.291Z,22.20
2018-08-04T15:35:38.119Z,22.54
2018-08-04T15:38:05.663Z,22.38
2018-08-04T15:40:34.727Z,23.19
2018-08-04T15:43:02.283Z,24.06
2018-08-04T15:45:30.574Z,23.33
2018-08-04T15:47:58.485Z,23.59
2018-08-04T15:50:26.039Z,23.27
2018-08-04T15:52:53.566Z,23.89
2018-08-04T15:55:21.654Z,22.61
2018-08-04T15:57:51.283Z,22.73
2018-08-04T16:00:18.920Z,23.56
2018-08-04T16:02:47.594Z,22.22
2018-08-04T16:05:15.635Z,23.56
2018-08-04T16:07:43.849Z,23.37
2018-08-04T16:10:11.928Z,24.00
2018-08-04T16:12:39.523Z,25.00
2018-08-04T16:15:07.076Z,24.53
2018-08-04T16:17:36.251Z,25.07
2018-08-04T16:20:03.777Z,24.09
2018-08-04T16:22:31.836Z,24.47
2018-08-04T16:25:00.514Z,23.24
2018-08-04T16:27:28.155Z,23.55
2018-08-04T16:29:55.774Z,24.67
2018-08-04T16:32:24.108Z,23.89
2018-08-04T16:34:51.674Z,24.55
2018-08-04T16:37:19.307Z,26.08
2018-08-04T16:40:02.470Z,25.61
2018-08-04T16:42:30.145Z,26.08
2018-08-04T16:44:57.978Z,25.80
2018-08-04T16:47:25.527Z,27.13
2018-08-04T16:49:53.107Z,26.76
2018-08-04T16:52:21.195Z,27.20
2018-08-04T16:54:48.779Z,28.51
2018-08-04T16:57:16.364Z,29.14
2018-08-04T16:59:47.672Z,28.78
2018-08-04T17:02:15.263Z,29.06
2018-08-04T17:04:43.430Z,29.79
2018-08-04T17:07:13.370Z,29.57
2018-08-04T17:09:40.966Z,30.60
2018-08-04T17:14:59.160Z,30.59
2018-08-04T17:17:26.686Z,29.89
2018-08-04T17:19:55.399Z,30.64
2018-08-04T17:22:23.306Z,30.04
2018-08-04T17:24:51.541Z,30.26
2018-08-04T17:27:19.964Z,30.91
2018-08-04T17:29:49.471Z,31.16
2018-08-04T17:32:18.658Z,30.57
2018-08-04T17:34:46.261Z,30.66
2018-08-04T17:37:15.265Z,31.42
2018-08-04T17:39:42.862Z,31.29
2018-08-04T17:42:10.475Z,31.62
2018-08-04T17:44:39.518Z,31.82
2018-08-04T17:47:08.093Z,31.16
2018-08-04T17:49:35.614Z,31.50
2018-08-04T17:52:03.685Z,31.57
2018-08-04T17:54:31.734Z,32.12
2018-08-04T17:56:59.512Z,31.84
2018-08-04T17:59:27.464Z,31.92
2018-08-04T18:01:55.867Z,31.74
2018-08-04T18:04:24.079Z,31.82
2018-08-04T18:06:53.126Z,32.79
2018-08-04T18:09:20.662Z,31.87
2018-08-04T18:11:48.243Z,32.69
2018-08-04T18:14:17.553Z,32.75
2018-08-04T18:16:46.523Z,33.32
2018-08-04T18:19:14.064Z,33.40
2018-08-04T18:21:41.949Z,33.56
2018-08-04T18:24:09.555Z,33.07
2018-08-04T18:26:38.458Z,34.20
2018-08-04T18:29:07.185Z,34.29
2018-08-04T18:39:32.210Z,35.26
2018-08-04T18:41:59.786Z,35.11
2018-08-04T18:44:27.655Z,35.02
2018-08-04T18:46:56.085Z,35.49
2018-08-04T18:49:23.610Z,36.24
2018-08-04T18:51:51.482Z,35.61
2018-08-04T18:54:33.274Z,35.80
2018-08-04T18:57:01.146Z,36.12
2018-08-04T18:59:29.583Z,36.92
2018-08-04T19:01:57.116Z,36.38
2018-08-04T19:04:25.829Z,37.28
2018-08-04T19:06:53.459Z,37.04
2018-08-04T19:09:21.082Z,37.14
2018-08-04T19:11:48.915Z,37.05
2018-08-04T19:14:16.545Z,37.37
2018-08-04T19:16:44.090Z,37.35
2018-08-04T19:19:11.927Z,38.30
2018-08-04T19:21:39.597Z,38.43
2018-08-04T19:24:07.270Z,38.02
2018-08-04T19:26:35.175Z,38.42
2018-08-04T19:29:03.646Z,38.50
2018-08-04T19:31:31.251Z,38.72
2018-08-04T19:34:00.848Z,39.00
2018-08-04T19:36:28.714Z,39.22
2018-08-04T19:38:56.630Z,38.41
2018-08-04T19:41:24.522Z,38.73
2018-08-04T19:43:52.226Z,38.62
2018-08-04T19:46:20.415Z,39.68
2018-08-04T19:48:48.310Z,39.57
2018-08-04T19:51:16.670Z,38.89
2018-08-04T19:53:44.286Z,39.09
2018-08-04T19:56:12.180Z,39.82
2018-08-04T19:58:39.778Z,39.27
2018-08-04T20:01:07.700Z,40.17
2018-08-04T20:03:35.656Z,39.53
2018-08-04T20:06:04.393Z,40.05
2018-08-04T20:08:32.182Z,39.88
2018-08-04T20:10:59.956Z,40.92
2018-08-04T20:13:27.565Z,40.63
2018-08-04T20:15:56.538Z,41.28
2018-08-04T20:18:26.132Z,41.49
2018-08-04T20:20:54.103Z,40.74
2018-08-04T20:23:22.080Z,41.54
2018-08-04T20:25:50.019Z,41.57
2018-08-04T20:28:18.599Z,41.37
2018-08-04T20:30:50.482Z,41.88
2018-08-04T20:33:18.551Z,41.19
2018-08-04T20:35:46.664Z,42.01
2018-08-04T20:38:14.287Z,41.57
2018-08-04T20:40:43.938Z,41.71
2018-08-04T20:43:13.739Z,41.77
2018-08-04T20:45:41.359Z,42.37
2018-08-04T20:48:09.246Z,42.24
2018-08-04T20:50:37.838Z,41.98
2018-08-04T20:53:07.438Z,42.84
2018-08-04T20:55:35.246Z,42.26
2018-08-04T20:58:03.787Z,43.01
2018-08-04T21:00:31.374Z,42.71
2018-08-04T21:02:59.346Z,43.17
2018-08-04T21:05:27.814Z,42.44
2018-08-04T21:07:55.907Z,43.14
2018-08-04T21:10:23.471Z,42.61
2018-08-04T21:12:51.175Z,43.00
2018-08-04T21:15:19.570Z,43.04
2018-08-04T21:17:47.195Z,43.03
2018-08-04T21:20:15.810Z,43.79
2018-08-04T21:22:44.335Z,44.02
2018-08-04T21:25:12.614Z,43.22
2018-08-04T21:27:40.198Z,43.32
2018-08-04T21:30:08.991Z,44.28
2018-08-04T21:32:36.599Z,43.67
2018-08-04T21:35:04.157Z,43.79
2018-08-04T21:37:32.858Z,44.64
2018-08-04T21:40:00.407Z,44.49
2018-08-04T21:42:28.564Z,44.60
2018-08-04T21:44:56.620Z,45.03
2018-08-04T21:47:24.198Z,44.70
2018-08-04T21:49:52.641Z,44.90
2018-08-04T21:52:20.656Z,44.40
2018-08-04T21:54:48.239Z,44.24
2018-08-04T21:57:15.817Z,44.56
2018-08-04T21:59:43.699Z,45.20
2018-08-04T22:02:11.323Z,44.45
2018-08-04T22:04:41.830Z,44.71
2018-08-04T22:07:10.346Z,45.45
2018-08-04T22:09:37.887Z,44.71
2018-08-04T22:12:05.516Z,45.46
2018-08-04T22:14:33.395Z,44.86
2018-08-04T22:17:01.659Z,45.69
2018-08-04T22:19:30.137Z,45.21
2018-08-04T22:21:58.056Z,45.80
2018-08-04T22:24:25.695Z,45.41
2018-08-04T22:26:56.584Z,45.97
2018-08-04T22:29:24.424Z,46.21
2018-08-04T22:31:52.736Z,46.60
2018-08-04T22:34:20.282Z,46.53
2018-08-04T22:36:48.211Z,46.33
2018-08-04T22:39:15.719Z,46.49
2018-08-04T22:41:43.254Z,46.60
2018-08-04T22:44:11.217Z,47.22
2018-08-04T22:46:39.368Z,47.05
2018-08-04T22:49:06.926Z,47.17
2018-08-04T22:51:34.730Z,47.97
2018-08-04T22:54:02.326Z,47.07
2018-08-04T22:56:29.870Z,47.64
2018-08-04T22:58:57.689Z,47.88
2018-08-04T23:01:26.641Z,47.41
2018-08-04T23:03:54.500Z,48.21
2018-08-04T23:06:22.427Z,48.26
2018-08-04T23:08:52.615Z,48.54
2018-08-04T23:11:20.187Z,48.64
2018-08-04T23:13:48.090Z,47.84
2018-08-04T23:16:15.945Z,47.96
2018-08-04T23:18:43.547Z,48.71
2018-08-04T23:21:11.487Z,47.98
2018-08-04T23:23:39.096Z,48.56
2018-08-04T23:26:06.610Z,48.22
2018-08-04T23:28:34.452Z,48.46
2018-08-04T23:31:02.015Z,48.56
2018-08-04T23:33:29.606Z,48.47
2018-08-04T23:35:57.720Z,49.13
2018-08-04T23:38:25.629Z,48.50
2018-08-04T23:40:53.222Z,49.08
2018-08-04T23:43:20.856Z,48.98
2018-08-04T23:45:48.528Z,48.60
2018-08-04T23:48:16.358Z,48.42
2018-08-04T23:50:44.851Z,48.30
2018-08-04T23:53:13.455Z,48.84
2018-08-04T23:55:45.143Z,48.42
2018-08-04T23:58:13.635Z,49.22
